Marine Rescue Pd30 — PD30 — position and weather

sailwx.info

Track history (hours):
 
Tides and Currents Weather Stations Pressure Air Temp Water Temp Dewpoint Dewpoint Depression Visibility Wind Speed Wind Dir Waves Ship Positions

Marine Rescue Pd30

Last reported at 2017-Nov-18 22:33 UTC. Time now 2017-Nov-23 09:45 UTC.
Position S 28°11' E 153°33'.

Length 10 m.

Type: SAR. MMSI: 503558900.

Date/timePositionNaut miles runAvg speedWind from/ knotsBaromVisibWave heightAir tempDewpointWater temp
2017-Nov-18 22:33S 28°11' E 153°33'0 0.0
2017-Nov-18 22:30S 28°11' E 153°33'1 2.8
2017-Nov-18 22:01S 28°12' E 153°34'3 5.2
2017-Nov-18 21:31S 28°14' E 153°33'4 8.3
2017-Nov-18 21:01S 28°10' E 153°33'1 2.3
2017-Nov-18 20:30S 28°11' E 153°33'0 0.0
2017-Nov-18 00:40S 28°11' E 153°33'0 0.0
2017-Nov-18 00:30S 28°11' E 153°33'0 0.0
2017-Nov-18 00:00S 28°11' E 153°33'1 1.4
2017-Nov-17 23:30S 28°11' E 153°32'0 0.8
2017-Nov-17 23:00S 28°12' E 153°32'1 2.1
2017-Nov-17 22:30S 28°11' E 153°33'1 1.4
2017-Nov-17 22:01S 28°11' E 153°33'1 1.8
2017-Nov-17 21:30S 28°11' E 153°33'0 0.6
2017-Nov-17 21:00S 28°11' E 153°33'0 0.0
2017-Nov-17 20:30S 28°11' E 153°33'0 0.0
2017-Nov-17 20:00S 28°11' E 153°33'  
2017-Nov-10 21:51S 28°11' E 153°33'0 0.0
2017-Nov-10 21:31S 28°11' E 153°33'2 3.5
2017-Nov-10 21:00S 28°10' E 153°34'2 2.3
2017-Nov-10 20:18S 28°11' E 153°33'0 1.3
2017-Nov-10 20:00S 28°11' E 153°33'  
Track history (hours):
 
Tides and Currents Weather Stations Pressure Air Temp Water Temp Dewpoint Dewpoint Depression Visibility Wind Speed Wind Dir Waves Ship Positions

Marine Rescue Pd30

Last reported at 2017-Nov-18 22:33 UTC. Time now 2017-Nov-23 09:45 UTC.
Position S 28°11' E 153°33'.

Length 10 m.

Type: SAR. MMSI: 503558900.

Date/timePositionNaut miles runAvg speedWind from/ knotsBaromVisibWave heightAir tempDewpointWater temp
2017-Nov-18 22:33S 28°11' E 153°33'0 0.0
2017-Nov-18 22:30S 28°11' E 153°33'1 2.8
2017-Nov-18 22:01S 28°12' E 153°34'3 5.2
2017-Nov-18 21:31S 28°14' E 153°33'4 8.3
2017-Nov-18 21:01S 28°10' E 153°33'1 2.3
2017-Nov-18 20:30S 28°11' E 153°33'0 0.0
2017-Nov-18 00:40S 28°11' E 153°33'0 0.0
2017-Nov-18 00:30S 28°11' E 153°33'0 0.0
2017-Nov-18 00:00S 28°11' E 153°33'1 1.4
2017-Nov-17 23:30S 28°11' E 153°32'0 0.8
2017-Nov-17 23:00S 28°12' E 153°32'1 2.1
2017-Nov-17 22:30S 28°11' E 153°33'1 1.4
2017-Nov-17 22:01S 28°11' E 153°33'1 1.8
2017-Nov-17 21:30S 28°11' E 153°33'0 0.6
2017-Nov-17 21:00S 28°11' E 153°33'0 0.0
2017-Nov-17 20:30S 28°11' E 153°33'0 0.0
2017-Nov-17 20:00S 28°11' E 153°33'  
2017-Nov-10 21:51S 28°11' E 153°33'0 0.0
2017-Nov-10 21:31S 28°11' E 153°33'2 3.5
2017-Nov-10 21:00S 28°10' E 153°34'2 2.3
2017-Nov-10 20:18S 28°11' E 153°33'0 1.3
2017-Nov-10 20:00S 28°11' E 153°33'  

Dump ship's entire track history